createdAt,value
2023-12-26T00:00:38.693Z,6.18
2023-12-26T00:03:08.051Z,7.40
2023-12-26T00:05:35.171Z,7.10
2023-12-26T00:08:05.379Z,9.35
2023-12-26T00:10:32.059Z,6.95
2023-12-26T00:13:01.150Z,10.55
2023-12-26T00:15:28.427Z,6.63
2023-12-26T00:17:55.108Z,8.70
2023-12-26T00:20:21.790Z,9.05
2023-12-26T00:22:48.373Z,6.38
2023-12-26T00:25:14.970Z,6.47
2023-12-26T00:27:42.472Z,9.10
2023-12-26T00:30:09.603Z,7.97
2023-12-26T00:32:36.414Z,8.13
2023-12-26T00:35:03.591Z,5.63
2023-12-26T00:37:30.501Z,5.60
2023-12-26T00:39:56.986Z,8.10
2023-12-26T00:42:24.624Z,6.95
2023-12-26T00:44:52.438Z,6.88
2023-12-26T00:47:19.058Z,7.30
2023-12-26T00:49:45.724Z,6.82
2023-12-26T00:52:12.359Z,8.30
2023-12-26T00:54:38.917Z,8.43
2023-12-26T00:57:05.598Z,7.97
2023-12-26T00:59:32.251Z,6.05
2023-12-26T01:02:02.602Z,5.57
2023-12-26T01:04:29.891Z,6.13
2023-12-26T01:06:56.506Z,5.55
2023-12-26T01:09:23.063Z,7.78
2023-12-26T01:11:49.742Z,5.70
2023-12-26T01:14:16.411Z,5.85
2023-12-26T01:16:46.322Z,4.80
2023-12-26T01:19:14.247Z,5.32
2023-12-26T01:21:41.054Z,4.90
2023-12-26T01:24:07.640Z,6.07
2023-12-26T01:26:34.617Z,5.07
2023-12-26T01:29:02.331Z,9.70
2023-12-26T01:31:29.564Z,4.63
2023-12-26T01:33:56.196Z,5.95
2023-12-26T01:36:22.888Z,5.45
2023-12-26T01:38:49.478Z,6.32
2023-12-26T01:41:16.093Z,5.50
2023-12-26T01:43:42.617Z,4.72
2023-12-26T01:46:10.138Z,4.85
2023-12-26T01:48:37.653Z,3.45
2023-12-26T01:51:05.864Z,6.85
2023-12-26T01:53:33.159Z,4.03
2023-12-26T01:56:00.370Z,3.85
2023-12-26T01:58:26.986Z,4.47
2023-12-26T02:00:53.864Z,4.68
2023-12-26T02:03:20.987Z,4.38
2023-12-26T02:05:48.001Z,5.33
2023-12-26T02:08:18.447Z,7.25
2023-12-26T02:10:46.283Z,5.65
2023-12-26T02:13:13.121Z,4.95
2023-12-26T02:15:39.710Z,5.38
2023-12-26T02:18:06.852Z,5.97
2023-12-26T02:20:33.511Z,3.95
2023-12-26T02:23:02.600Z,6.78
2023-12-26T02:25:30.990Z,5.32
2023-12-26T02:27:59.932Z,5.03
2023-12-26T02:30:27.559Z,5.13
2023-12-26T02:32:55.215Z,4.97
2023-12-26T02:35:22.703Z,5.82
2023-12-26T02:37:50.950Z,5.95
2023-12-26T02:40:17.547Z,4.72
2023-12-26T02:42:44.066Z,4.53
2023-12-26T02:45:11.208Z,6.68
2023-12-26T02:47:38.091Z,3.30
2023-12-26T02:50:07.206Z,3.33
2023-12-26T02:52:33.741Z,5.78
2023-12-26T02:55:00.278Z,3.33
2023-12-26T02:57:26.809Z,3.85
2023-12-26T02:59:53.353Z,5.53
2023-12-26T03:02:20.202Z,2.95
2023-12-26T03:04:47.391Z,4.20
2023-12-26T03:07:13.887Z,2.67
2023-12-26T03:09:40.420Z,3.53
2023-12-26T03:12:07.119Z,2.30
2023-12-26T03:14:33.711Z,3.08
2023-12-26T03:17:00.286Z,3.10
2023-12-26T03:19:27.253Z,4.83
2023-12-26T03:21:53.990Z,2.90
2023-12-26T03:24:20.500Z,3.42
2023-12-26T03:26:47.114Z,2.65
2023-12-26T03:29:13.723Z,3.17
2023-12-26T03:31:45.016Z,2.73
2023-12-26T03:34:12.414Z,2.75
2023-12-26T03:36:47.021Z,3.45
2023-12-26T03:39:13.826Z,3.88
2023-12-26T03:41:40.514Z,4.78
2023-12-26T03:44:07.437Z,3.43
2023-12-26T03:46:34.728Z,3.10
2023-12-26T03:49:01.702Z,3.00
2023-12-26T03:51:28.423Z,2.30
2023-12-26T03:53:55.779Z,2.72
2023-12-26T03:56:22.341Z,3.93
2023-12-26T03:58:49.666Z,3.97
2023-12-26T04:01:16.185Z,2.72
2023-12-26T04:03:42.940Z,4.85
2023-12-26T04:06:09.616Z,4.40
2023-12-26T04:08:36.201Z,3.23
2023-12-26T04:11:02.863Z,5.15
2023-12-26T04:13:29.390Z,3.92
2023-12-26T04:15:55.910Z,4.97
2023-12-26T04:18:22.514Z,3.42
2023-12-26T04:20:49.107Z,2.73
2023-12-26T04:23:15.638Z,2.88
2023-12-26T04:25:42.146Z,2.70
2023-12-26T04:28:08.658Z,2.20
2023-12-26T04:30:35.299Z,2.85
2023-12-26T04:33:02.533Z,4.00
2023-12-26T04:35:29.224Z,2.55
2023-12-26T04:37:55.732Z,2.40
2023-12-26T04:40:22.364Z,3.05
2023-12-26T04:42:48.942Z,2.95
2023-12-26T04:45:15.647Z,2.00
2023-12-26T04:47:42.328Z,2.17
2023-12-26T04:50:09.291Z,1.77
2023-12-26T04:52:36.114Z,2.13
2023-12-26T04:55:03.609Z,1.98
2023-12-26T04:57:30.179Z,2.50
2023-12-26T04:59:56.892Z,1.92
2023-12-26T05:02:23.659Z,3.22
2023-12-26T05:04:50.289Z,3.15
2023-12-26T05:07:16.883Z,3.30
2023-12-26T05:09:44.687Z,3.53
2023-12-26T05:12:11.346Z,2.97
2023-12-26T05:14:38.046Z,4.28
2023-12-26T05:17:04.756Z,5.07
2023-12-26T05:19:31.510Z,5.10
2023-12-26T05:21:58.169Z,3.20
2023-12-26T05:24:24.749Z,4.00
2023-12-26T05:26:51.422Z,3.72
2023-12-26T05:29:18.006Z,2.88
2023-12-26T05:31:44.563Z,3.13
2023-12-26T05:34:11.243Z,3.03
2023-12-26T05:36:38.041Z,3.58
2023-12-26T05:39:05.124Z,3.25
2023-12-26T05:41:31.871Z,2.65
2023-12-26T05:43:58.597Z,2.75
2023-12-26T05:46:32.223Z,2.10
2023-12-26T05:48:59.954Z,2.33
2023-12-26T05:51:27.391Z,2.10
2023-12-26T05:53:54.054Z,2.60
2023-12-26T05:56:21.225Z,2.20
2023-12-26T05:58:47.920Z,2.23
2023-12-26T06:01:14.587Z,1.85
2023-12-26T06:03:41.309Z,2.10
2023-12-26T06:06:15.104Z,2.50
2023-12-26T06:08:42.183Z,1.50
2023-12-26T06:11:09.535Z,1.47
2023-12-26T06:13:36.110Z,1.88
2023-12-26T06:16:02.669Z,1.55
2023-12-26T06:18:29.309Z,1.60
2023-12-26T06:20:55.925Z,1.60
2023-12-26T06:23:22.473Z,1.10
2023-12-26T06:25:48.977Z,1.25
2023-12-26T06:28:15.493Z,1.38
2023-12-26T06:30:42.162Z,2.17
2023-12-26T06:33:08.969Z,1.30
2023-12-26T06:35:35.539Z,3.87
2023-12-26T06:38:02.146Z,1.75
2023-12-26T06:40:28.663Z,1.30
2023-12-26T06:42:55.437Z,1.10
2023-12-26T06:45:22.140Z,3.28
2023-12-26T06:47:48.810Z,1.07
2023-12-26T06:50:15.682Z,1.75
2023-12-26T06:52:42.290Z,1.17
2023-12-26T06:55:08.886Z,1.40
2023-12-26T06:57:35.352Z,1.00
2023-12-26T07:00:02.281Z,0.80
2023-12-26T07:02:28.971Z,0.70
2023-12-26T07:04:55.519Z,0.82
2023-12-26T07:07:22.135Z,0.50
2023-12-26T07:09:48.601Z,0.90
2023-12-26T07:12:15.291Z,0.70
2023-12-26T07:14:41.920Z,0.60
2023-12-26T07:17:08.537Z,0.75
2023-12-26T07:19:35.344Z,0.73
2023-12-26T07:22:02.038Z,0.70
2023-12-26T07:24:28.809Z,0.70
2023-12-26T07:26:55.373Z,1.88
2023-12-26T07:29:24.631Z,0.70
2023-12-26T07:31:53.737Z,0.60
2023-12-26T07:34:20.316Z,0.68
2023-12-26T07:36:46.916Z,0.90
2023-12-26T07:39:13.428Z,0.80
2023-12-26T07:41:40.164Z,0.70
2023-12-26T07:44:06.769Z,0.98
2023-12-26T07:46:33.276Z,1.30
2023-12-26T07:48:59.952Z,1.10
2023-12-26T07:51:26.668Z,0.95
2023-12-26T07:53:53.793Z,1.30
2023-12-26T07:56:20.461Z,0.70
2023-12-26T07:58:46.954Z,0.98
2023-12-26T08:01:14.949Z,0.80
2023-12-26T08:03:41.715Z,1.08
2023-12-26T08:06:08.449Z,1.33
2023-12-26T08:08:35.039Z,0.98
2023-12-26T08:11:01.694Z,0.68
2023-12-26T08:13:28.238Z,0.87
2023-12-26T08:15:54.839Z,1.00
2023-12-26T08:18:22.046Z,0.70
2023-12-26T08:20:48.673Z,0.60
2023-12-26T08:23:15.185Z,0.70
2023-12-26T08:25:41.791Z,0.80
2023-12-26T08:28:08.326Z,0.73
2023-12-26T08:30:39.383Z,1.20
2023-12-26T08:33:06.688Z,0.52
2023-12-26T08:35:33.487Z,0.90
2023-12-26T08:38:00.001Z,0.73
2023-12-26T08:40:26.558Z,1.13
2023-12-26T08:42:53.119Z,2.25
2023-12-26T08:45:19.892Z,0.70
2023-12-26T08:47:47.073Z,1.00
2023-12-26T08:50:13.687Z,0.93
2023-12-26T08:52:40.280Z,0.70
2023-12-26T08:55:07.089Z,1.70
2023-12-26T08:57:33.615Z,0.90
2023-12-26T09:00:01.308Z,0.88
2023-12-26T09:02:27.966Z,1.10
2023-12-26T09:04:54.469Z,1.10
2023-12-26T09:07:21.046Z,1.15
2023-12-26T09:09:47.548Z,0.88
2023-12-26T09:12:14.227Z,0.90
2023-12-26T09:14:40.964Z,1.40
2023-12-26T09:17:07.587Z,1.00
2023-12-26T09:19:34.510Z,1.85
2023-12-26T09:22:01.038Z,1.58
2023-12-26T09:24:28.085Z,1.02
2023-12-26T09:26:54.632Z,1.10
2023-12-26T09:29:22.770Z,0.90
2023-12-26T09:31:49.376Z,1.10
2023-12-26T09:34:16.063Z,1.27
2023-12-26T09:36:42.650Z,1.05
2023-12-26T09:39:09.168Z,1.67
2023-12-26T09:41:35.769Z,1.80
2023-12-26T09:44:03.091Z,1.25
2023-12-26T09:46:31.352Z,1.33
2023-12-26T09:48:58.037Z,1.58
2023-12-26T09:51:45.356Z,1.40
2023-12-26T09:54:13.775Z,1.27
2023-12-26T09:56:41.871Z,1.80
2023-12-26T09:59:08.876Z,1.88
2023-12-26T10:01:35.382Z,1.55
2023-12-26T10:04:04.514Z,0.80
2023-12-26T10:06:31.835Z,1.33
2023-12-26T10:08:58.767Z,1.30
2023-12-26T10:11:27.830Z,1.60
2023-12-26T10:13:55.690Z,3.33
2023-12-26T10:16:22.788Z,1.97
2023-12-26T10:18:51.533Z,1.92
2023-12-26T10:21:20.883Z,1.40
2023-12-26T10:23:47.596Z,0.95
2023-12-26T10:26:15.279Z,1.10
2023-12-26T10:28:42.940Z,2.00
2023-12-26T10:31:16.599Z,1.55
2023-12-26T10:33:43.869Z,2.08
2023-12-26T10:36:12.072Z,2.05
2023-12-26T10:38:41.817Z,1.60
2023-12-26T10:41:14.619Z,1.73
2023-12-26T10:43:44.321Z,1.40
2023-12-26T10:46:10.915Z,1.50
2023-12-26T10:48:40.697Z,1.38
2023-12-26T10:51:07.831Z,1.60
2023-12-26T10:53:53.214Z,2.13
2023-12-26T10:56:21.216Z,2.35
2023-12-26T10:58:48.128Z,1.65
2023-12-26T11:01:16.343Z,2.13
2023-12-26T11:03:43.061Z,1.92
2023-12-26T11:06:09.699Z,1.70
2023-12-26T11:08:36.258Z,1.38
2023-12-26T11:11:03.114Z,2.55
2023-12-26T11:13:29.592Z,1.48
2023-12-26T11:15:56.380Z,1.00
2023-12-26T11:18:25.444Z,1.00
2023-12-26T11:20:53.718Z,1.35
2023-12-26T11:23:23.425Z,1.20
2023-12-26T11:25:51.414Z,1.35
2023-12-26T11:28:18.490Z,1.63
2023-12-26T11:30:46.738Z,2.43
2023-12-26T11:33:14.001Z,2.95
2023-12-26T11:35:41.376Z,2.03
2023-12-26T11:38:08.310Z,2.00
2023-12-26T11:40:35.647Z,1.15
2023-12-26T11:43:02.355Z,1.73
2023-12-26T11:45:29.290Z,1.02
2023-12-26T11:47:56.328Z,2.65
2023-12-26T11:50:22.986Z,2.45
2023-12-26T11:52:49.501Z,4.47
2023-12-26T11:55:16.145Z,3.03
2023-12-26T11:57:42.696Z,1.27
2023-12-26T12:00:09.321Z,1.55
2023-12-26T12:02:35.860Z,2.05
2023-12-26T12:05:07.274Z,1.65
2023-12-26T12:07:33.817Z,3.77
2023-12-26T12:10:10.200Z,1.48
2023-12-26T12:12:36.754Z,1.90
2023-12-26T12:15:04.381Z,1.55
2023-12-26T12:17:31.727Z,1.48
2023-12-26T12:20:02.088Z,2.27
2023-12-26T12:22:31.221Z,2.17
2023-12-26T12:25:00.153Z,1.67
2023-12-26T12:27:26.973Z,3.28
2023-12-26T12:29:59.922Z,4.13
2023-12-26T12:32:33.813Z,1.63
2023-12-26T12:35:18.080Z,1.60
2023-12-26T12:37:49.513Z,4.65
2023-12-26T12:40:16.769Z,1.20
2023-12-26T12:42:43.414Z,1.50
2023-12-26T12:45:10.108Z,2.60
2023-12-26T12:47:36.868Z,1.48
2023-12-26T12:50:04.874Z,2.42
2023-12-26T12:52:32.906Z,1.70
2023-12-26T12:54:59.465Z,2.75
2023-12-26T12:57:26.082Z,4.10
2023-12-26T12:59:52.717Z,3.08
2023-12-26T13:02:19.351Z,3.08
2023-12-26T13:04:46.448Z,3.53
2023-12-26T13:07:13.472Z,3.08
2023-12-26T13:09:40.723Z,3.50
2023-12-26T13:12:08.088Z,4.40
2023-12-26T13:14:36.076Z,2.00
2023-12-26T13:17:03.232Z,2.38
2023-12-26T13:19:34.186Z,2.90
2023-12-26T13:22:01.871Z,4.73
2023-12-26T13:24:28.453Z,3.55
2023-12-26T13:26:55.041Z,2.22
2023-12-26T13:29:25.444Z,3.28
2023-12-26T13:31:54.124Z,1.13
2023-12-26T13:34:28.919Z,1.97
2023-12-26T13:36:55.656Z,1.58
2023-12-26T13:39:22.311Z,2.40
2023-12-26T13:41:49.027Z,1.95
2023-12-26T13:44:18.381Z,2.20
2023-12-26T13:46:45.035Z,1.70
2023-12-26T13:49:11.773Z,1.30
2023-12-26T13:51:40.532Z,2.22
2023-12-26T13:54:08.231Z,1.65
2023-12-26T13:56:34.808Z,2.13
2023-12-26T13:59:02.529Z,3.03
2023-12-26T14:01:29.461Z,1.88
2023-12-26T14:03:57.471Z,2.17
2023-12-26T14:06:24.328Z,4.85
2023-12-26T14:08:52.735Z,1.67
2023-12-26T14:11:20.411Z,2.57
2023-12-26T14:13:47.968Z,2.53
2023-12-26T14:16:16.040Z,3.30
2023-12-26T14:18:43.176Z,4.20
2023-12-26T14:21:09.936Z,3.20
2023-12-26T14:23:36.603Z,1.73
2023-12-26T14:26:03.183Z,2.78
2023-12-26T14:28:29.747Z,3.85
2023-12-26T14:30:56.698Z,7.20
2023-12-26T14:33:23.718Z,3.42
2023-12-26T14:35:51.342Z,2.07
2023-12-26T14:38:18.412Z,2.90
2023-12-26T14:40:49.562Z,2.30
2023-12-26T14:43:16.616Z,3.67
2023-12-26T14:45:43.263Z,3.42
2023-12-26T14:48:10.048Z,3.47
2023-12-26T14:50:36.752Z,2.65
2023-12-26T14:53:05.848Z,4.25
2023-12-26T14:55:33.944Z,2.00
2023-12-26T14:58:00.725Z,3.47
2023-12-26T15:00:27.714Z,5.33
2023-12-26T15:02:54.973Z,4.55
2023-12-26T15:05:22.195Z,3.42
2023-12-26T15:07:50.850Z,4.82
2023-12-26T15:10:18.514Z,3.05
2023-12-26T15:12:47.468Z,2.57
2023-12-26T15:15:14.205Z,4.95
2023-12-26T15:17:41.334Z,3.50
2023-12-26T15:20:12.115Z,2.78
2023-12-26T15:22:39.497Z,3.83
2023-12-26T15:25:06.341Z,3.23
2023-12-26T15:27:33.036Z,2.30
2023-12-26T15:29:59.714Z,3.42
2023-12-26T15:32:26.262Z,1.92
2023-12-26T15:34:53.322Z,4.75
2023-12-26T15:37:19.944Z,3.00
2023-12-26T15:39:46.574Z,2.58
2023-12-26T15:42:13.261Z,4.35
2023-12-26T15:44:41.433Z,2.92
2023-12-26T15:47:09.734Z,3.17
2023-12-26T15:49:36.415Z,2.30
2023-12-26T15:52:03.147Z,3.03
2023-12-26T15:54:29.924Z,5.80
2023-12-26T15:56:56.647Z,5.90
2023-12-26T15:59:23.252Z,3.67
2023-12-26T16:01:49.755Z,3.97
2023-12-26T16:04:16.447Z,4.72
2023-12-26T16:06:43.074Z,4.93
2023-12-26T16:09:09.741Z,3.13
2023-12-26T16:11:36.696Z,4.95
2023-12-26T16:14:05.587Z,4.23
2023-12-26T16:16:32.084Z,3.90
2023-12-26T16:18:58.749Z,5.30
2023-12-26T16:21:25.688Z,1.92
2023-12-26T16:23:52.465Z,2.10
2023-12-26T16:26:19.087Z,3.63
2023-12-26T16:28:45.648Z,3.25
2023-12-26T16:31:15.906Z,3.83
2023-12-26T16:33:42.775Z,5.25
2023-12-26T16:36:10.670Z,2.30
2023-12-26T16:38:37.520Z,4.03
2023-12-26T16:41:09.144Z,4.32
2023-12-26T16:43:36.391Z,3.33
2023-12-26T16:46:10.369Z,3.25
2023-12-26T16:48:39.784Z,2.90
2023-12-26T16:51:08.424Z,5.60
2023-12-26T16:53:38.209Z,3.08
2023-12-26T16:56:09.009Z,2.42
2023-12-26T16:58:36.552Z,2.45
2023-12-26T17:01:04.905Z,4.60
2023-12-26T17:03:32.119Z,2.77
2023-12-26T17:06:02.400Z,4.38
2023-12-26T17:08:28.912Z,3.58
2023-12-26T17:10:55.488Z,3.40
2023-12-26T17:13:22.065Z,5.97
2023-12-26T17:15:48.655Z,6.20
2023-12-26T17:18:15.325Z,6.90
2023-12-26T17:20:43.641Z,4.93
2023-12-26T17:23:10.634Z,4.40
2023-12-26T17:25:37.949Z,4.70
2023-12-26T17:28:10.329Z,5.37
2023-12-26T17:30:37.595Z,1.75
2023-12-26T17:33:04.517Z,7.30
2023-12-26T17:35:33.694Z,5.40
2023-12-26T17:38:01.471Z,5.88
2023-12-26T17:40:28.045Z,5.50
2023-12-26T17:42:54.583Z,3.88
2023-12-26T17:45:21.179Z,5.88
2023-12-26T17:47:47.958Z,3.35
2023-12-26T17:50:14.715Z,7.70
2023-12-26T17:52:41.227Z,2.67
2023-12-26T17:55:08.077Z,2.88
2023-12-26T17:57:34.837Z,4.85
2023-12-26T18:00:01.552Z,3.70
2023-12-26T18:02:28.153Z,4.95
2023-12-26T18:04:56.135Z,4.93
2023-12-26T18:07:22.771Z,3.20
2023-12-26T18:09:49.351Z,4.13
2023-12-26T18:12:15.967Z,5.88
2023-12-26T18:14:42.825Z,3.78
2023-12-26T18:17:09.413Z,3.00
2023-12-26T18:19:35.957Z,2.88
2023-12-26T18:22:02.519Z,2.38
2023-12-26T18:24:29.056Z,4.80
2023-12-26T18:26:55.615Z,5.07
2023-12-26T18:29:23.458Z,6.87
2023-12-26T18:31:50.459Z,3.45
2023-12-26T18:34:17.151Z,8.70
2023-12-26T18:36:43.774Z,2.35
2023-12-26T18:39:11.022Z,3.53
2023-12-26T18:41:43.182Z,3.77
2023-12-26T18:44:10.949Z,2.72
2023-12-26T18:46:38.216Z,4.85
2023-12-26T18:49:08.332Z,5.40
2023-12-26T18:51:35.534Z,2.00
2023-12-26T18:54:03.082Z,4.50
2023-12-26T18:56:29.886Z,5.72
2023-12-26T18:58:57.005Z,5.70
2023-12-26T19:01:23.674Z,4.57
2023-12-26T19:03:51.442Z,6.57
2023-12-26T19:06:18.893Z,4.70
2023-12-26T19:08:45.463Z,4.15
2023-12-26T19:11:17.525Z,6.78
2023-12-26T19:13:44.444Z,5.35
2023-12-26T19:16:11.047Z,5.85
2023-12-26T19:18:37.800Z,2.73
2023-12-26T19:21:04.787Z,3.30
2023-12-26T19:23:31.583Z,5.72
2023-12-26T19:25:58.294Z,3.65
2023-12-26T19:28:24.861Z,4.38
2023-12-26T19:30:52.261Z,6.37
2023-12-26T19:33:19.240Z,3.80
2023-12-26T19:35:45.983Z,5.70
2023-12-26T19:38:14.915Z,5.25
2023-12-26T19:40:41.872Z,3.90
2023-12-26T19:43:08.435Z,3.10
2023-12-26T19:45:34.993Z,3.90
2023-12-26T19:48:01.934Z,5.85
2023-12-26T19:50:29.108Z,5.82
2023-12-26T19:52:55.994Z,5.82
2023-12-26T19:55:22.581Z,7.83
2023-12-26T19:57:49.148Z,7.03
2023-12-26T20:00:16.087Z,3.72
2023-12-26T20:02:42.757Z,7.05
2023-12-26T20:05:10.710Z,5.72
2023-12-26T20:07:38.950Z,4.80
2023-12-26T20:10:07.420Z,3.67
2023-12-26T20:12:34.757Z,4.85
2023-12-26T20:15:01.889Z,3.55
2023-12-26T20:17:28.482Z,5.50
2023-12-26T20:19:55.145Z,6.17
2023-12-26T20:22:22.133Z,6.57
2023-12-26T20:24:48.949Z,4.28
2023-12-26T20:27:15.795Z,5.90
2023-12-26T20:29:42.662Z,4.40
2023-12-26T20:32:09.360Z,4.03
2023-12-26T20:34:35.989Z,3.45
2023-12-26T20:37:02.538Z,6.18
2023-12-26T20:39:29.179Z,2.53
2023-12-26T20:41:56.168Z,1.85
2023-12-26T20:44:23.515Z,4.77
2023-12-26T20:46:52.177Z,2.25
2023-12-26T20:49:20.036Z,3.58
2023-12-26T20:51:47.033Z,5.20
2023-12-26T20:54:15.523Z,6.03
2023-12-26T20:56:43.755Z,4.77
2023-12-26T20:59:11.338Z,3.13
2023-12-26T21:01:38.601Z,3.10
2023-12-26T21:04:05.887Z,2.58
2023-12-26T21:06:33.059Z,1.55
2023-12-26T21:08:59.820Z,1.97
2023-12-26T21:11:26.440Z,4.03
2023-12-26T21:13:56.187Z,2.30
2023-12-26T21:16:22.958Z,2.20
2023-12-26T21:18:53.208Z,3.33
2023-12-26T21:21:21.878Z,1.23
2023-12-26T21:23:48.634Z,2.50
2023-12-26T21:26:15.276Z,1.30
2023-12-26T21:28:42.118Z,1.98
2023-12-26T21:31:09.911Z,1.20
2023-12-26T21:33:37.830Z,1.90
2023-12-26T21:36:05.023Z,1.77
2023-12-26T21:38:32.955Z,2.40
2023-12-26T21:41:01.108Z,1.70
2023-12-26T21:43:27.590Z,2.40
2023-12-26T21:45:54.767Z,1.77
2023-12-26T21:48:21.831Z,1.02
2023-12-26T21:50:48.658Z,1.42
2023-12-26T21:53:15.249Z,1.10
2023-12-26T21:55:42.130Z,2.40
2023-12-26T21:58:08.865Z,4.03
2023-12-26T22:00:36.175Z,2.03
2023-12-26T22:03:02.936Z,1.88
2023-12-26T22:05:29.618Z,1.88
2023-12-26T22:07:56.403Z,4.03
2023-12-26T22:10:23.138Z,2.37
2023-12-26T22:12:50.418Z,2.13
2023-12-26T22:15:23.636Z,1.65
2023-12-26T22:17:51.401Z,1.77
2023-12-26T22:20:18.278Z,2.92
2023-12-26T22:22:44.806Z,3.40
2023-12-26T22:25:11.322Z,2.75
2023-12-26T22:27:42.296Z,2.45
2023-12-26T22:30:09.436Z,2.88
2023-12-26T22:32:36.217Z,2.30
2023-12-26T22:35:03.438Z,1.30
2023-12-26T22:37:30.226Z,2.47
2023-12-26T22:39:57.190Z,1.35
2023-12-26T22:42:25.918Z,1.58
2023-12-26T22:44:53.853Z,1.30
2023-12-26T22:47:20.382Z,1.27
2023-12-26T22:49:47.069Z,2.53
2023-12-26T22:52:13.654Z,1.27
2023-12-26T22:54:41.688Z,1.77
2023-12-26T22:57:08.955Z,0.70
2023-12-26T22:59:35.550Z,0.90
2023-12-26T23:02:04.021Z,1.85
2023-12-26T23:04:30.588Z,1.50
2023-12-26T23:06:57.170Z,1.98
2023-12-26T23:09:23.798Z,0.95
2023-12-26T23:11:50.446Z,2.03
2023-12-26T23:14:17.006Z,1.70
2023-12-26T23:16:45.301Z,1.30
2023-12-26T23:19:13.540Z,1.58
2023-12-26T23:21:40.937Z,1.70
2023-12-26T23:24:08.443Z,2.20
2023-12-26T23:26:35.123Z,1.38
2023-12-26T23:29:04.805Z,1.33
2023-12-26T23:31:32.549Z,0.80
2023-12-26T23:33:59.786Z,1.27
2023-12-26T23:36:26.773Z,2.67
2023-12-26T23:38:53.477Z,1.15
2023-12-26T23:41:20.206Z,0.93
2023-12-26T23:43:46.742Z,0.68
2023-12-26T23:46:13.331Z,4.15
2023-12-26T23:48:42.582Z,1.40
2023-12-26T23:51:10.694Z,1.85
2023-12-26T23:53:37.250Z,1.65
2023-12-26T23:56:04.068Z,0.77
2023-12-26T23:58:30.685Z,1.00
